createdAt,value
2023-02-09T00:04:51.297Z,101335.16
2023-02-09T00:09:54.042Z,101346.78
2023-02-09T00:14:56.686Z,101339.16
2023-02-09T00:19:59.285Z,101328.50
2023-02-09T00:25:01.935Z,101317.09
2023-02-09T00:30:05.712Z,101313.25
2023-02-09T00:35:08.561Z,101278.66
2023-02-09T00:40:11.722Z,101310.81
2023-02-09T00:45:15.276Z,101282.75
2023-02-09T00:50:18.197Z,101256.44
2023-02-09T00:55:21.158Z,101297.09
2023-02-09T01:00:23.940Z,101293.19
2023-02-09T01:05:26.593Z,101291.66
2023-02-09T01:10:29.161Z,101295.56
2023-02-09T01:15:31.901Z,101263.63
2023-02-09T01:20:34.875Z,101289.09
2023-02-09T01:25:37.903Z,101288.53
2023-02-09T01:30:40.621Z,101284.69
2023-02-09T01:35:43.287Z,101257.03
2023-02-09T01:40:50.408Z,101249.75
2023-02-09T01:45:57.002Z,101257.38
2023-02-09T01:51:01.128Z,101254.00
2023-02-09T01:56:16.999Z,101274.66
2023-02-09T02:01:21.378Z,101269.31
2023-02-09T02:06:24.131Z,101274.84
2023-02-09T02:11:29.873Z,101264.94
2023-02-09T02:16:59.277Z,101274.19
2023-02-09T02:22:26.725Z,101269.38
2023-02-09T02:27:59.673Z,101284.66
2023-02-09T02:33:20.991Z,101288.72
2023-02-09T02:38:42.575Z,101290.28
2023-02-09T02:44:02.549Z,101279.50
2023-02-09T02:49:36.262Z,101264.03
2023-02-09T02:54:43.124Z,101278.97
2023-02-09T02:59:55.708Z,101277.94
2023-02-09T03:05:00.476Z,101282.53
2023-02-09T03:10:23.182Z,101264.81
2023-02-09T03:15:44.148Z,101273.53
2023-02-09T03:21:16.127Z,101268.44
2023-02-09T03:26:25.338Z,101276.88
2023-02-09T03:31:29.149Z,101273.00
2023-02-09T03:36:37.388Z,101267.81
2023-02-09T03:41:39.956Z,101249.47
2023-02-09T03:46:43.857Z,101267.38
2023-02-09T03:51:46.506Z,101264.66
2023-02-09T03:56:49.305Z,101256.25
2023-02-09T04:01:53.777Z,101263.97
2023-02-09T04:06:57.546Z,101264.50
2023-02-09T04:12:00.112Z,101261.59
2023-02-09T04:17:02.748Z,101255.00
2023-02-09T04:22:05.352Z,101251.59
2023-02-09T04:27:09.893Z,101250.63
2023-02-09T04:32:12.521Z,101254.22
2023-02-09T04:37:15.150Z,101274.22
2023-02-09T04:42:17.727Z,101270.53
2023-02-09T04:47:20.319Z,101262.22
2023-02-09T04:52:23.260Z,101270.22
2023-02-09T04:57:44.280Z,101264.13
2023-02-09T05:02:46.889Z,101244.81
2023-02-09T05:07:49.491Z,101231.56
2023-02-09T05:12:52.617Z,101234.97
2023-02-09T05:17:55.248Z,101236.03
2023-02-09T05:22:57.823Z,101246.84
2023-02-09T05:28:00.651Z,101244.03
2023-02-09T05:33:03.449Z,101251.50
2023-02-09T05:38:06.129Z,101233.59
2023-02-09T05:43:08.912Z,101225.69
2023-02-09T05:48:11.559Z,101263.19
2023-02-09T05:53:15.258Z,101257.41
2023-02-09T05:58:17.909Z,101247.28
2023-02-09T06:03:20.772Z,101251.41
2023-02-09T06:08:23.559Z,101257.03
2023-02-09T06:13:26.109Z,101255.88
2023-02-09T06:18:28.768Z,101249.28
2023-02-09T06:23:31.392Z,101246.78
2023-02-09T06:28:34.113Z,101251.78
2023-02-09T06:33:37.927Z,101252.78
2023-02-09T06:38:40.556Z,101237.19
2023-02-09T06:43:43.147Z,101207.84
2023-02-09T06:48:45.737Z,101236.47
2023-02-09T06:53:48.684Z,101226.59
2023-02-09T06:58:51.383Z,101232.09
2023-02-09T07:03:53.964Z,101228.53
2023-02-09T07:08:56.819Z,101179.91
2023-02-09T07:13:59.722Z,101222.53
2023-02-09T07:19:02.434Z,101224.63
2023-02-09T07:24:05.449Z,101230.97
2023-02-09T07:29:08.112Z,101214.69
2023-02-09T07:34:10.755Z,101233.44
2023-02-09T07:39:13.345Z,101229.22
2023-02-09T07:44:15.998Z,101221.28
2023-02-09T07:49:18.655Z,101217.56
2023-02-09T07:54:21.711Z,101223.53
2023-02-09T07:59:24.344Z,101223.06
2023-02-09T08:04:27.034Z,101216.91
2023-02-09T08:09:29.656Z,101208.19
2023-02-09T08:14:43.074Z,101198.22
2023-02-09T08:19:49.507Z,101205.13
2023-02-09T08:24:52.854Z,101221.63
2023-02-09T08:29:55.478Z,101218.41
2023-02-09T08:34:58.090Z,101223.00
2023-02-09T08:40:00.659Z,101201.69
2023-02-09T08:45:03.368Z,101191.09
2023-02-09T08:50:06.549Z,101192.91
2023-02-09T08:55:09.330Z,101219.66
2023-02-09T09:00:13.008Z,101200.97
2023-02-09T09:05:15.875Z,101203.56
2023-02-09T09:10:18.622Z,101199.97
2023-02-09T09:15:21.615Z,101202.00
2023-02-09T09:20:24.273Z,101204.88
2023-02-09T09:25:26.874Z,101197.97
2023-02-09T09:30:29.517Z,101180.66
2023-02-09T09:35:32.405Z,101199.00
2023-02-09T09:40:40.534Z,101213.91
2023-02-09T09:45:43.195Z,101190.66
2023-02-09T09:50:46.878Z,101191.41
2023-02-09T09:55:55.276Z,101181.00
2023-02-09T10:00:58.740Z,101180.03
2023-02-09T10:06:14.025Z,101173.50
2023-02-09T10:11:20.425Z,101162.09
2023-02-09T10:16:29.233Z,101167.44
2023-02-09T10:21:36.173Z,101145.75
2023-02-09T10:26:40.771Z,101160.06
2023-02-09T10:32:03.507Z,101164.09
2023-02-09T10:37:18.186Z,101153.16
2023-02-09T10:42:29.490Z,101161.53
2023-02-09T10:47:32.465Z,101154.22
2023-02-09T10:52:37.399Z,101114.41
2023-02-09T10:57:39.971Z,101129.66
2023-02-09T11:02:54.166Z,101106.66
2023-02-09T11:08:06.326Z,101123.88
2023-02-09T11:13:19.854Z,101108.13
2023-02-09T11:18:26.895Z,101121.09
2023-02-09T11:23:49.801Z,101118.16
2023-02-09T11:29:32.700Z,101105.38
2023-02-09T11:35:02.548Z,101083.38
2023-02-09T11:40:22.864Z,101099.16
2023-02-09T11:45:52.382Z,101109.97
2023-02-09T11:51:08.089Z,101100.16
2023-02-09T11:56:17.725Z,101101.84
2023-02-09T12:01:22.933Z,101104.88
2023-02-09T12:06:27.693Z,101094.97
2023-02-09T12:12:09.440Z,101095.28
2023-02-09T12:17:15.493Z,101103.91
2023-02-09T12:22:33.291Z,101102.53
2023-02-09T12:27:38.995Z,101079.47
2023-02-09T12:32:44.186Z,101112.94
2023-02-09T12:38:27.330Z,101078.69
2023-02-09T12:43:31.876Z,101078.66
2023-02-09T12:48:34.586Z,101058.91
2023-02-09T12:53:46.008Z,101054.47
2023-02-09T12:58:48.573Z,101091.09
2023-02-09T13:04:03.322Z,101071.03
2023-02-09T13:09:13.725Z,101086.06
2023-02-09T13:14:18.069Z,101067.56
2023-02-09T13:19:53.110Z,101071.53
2023-02-09T13:25:38.710Z,101075.06
2023-02-09T13:30:41.762Z,101050.81
2023-02-09T13:36:24.498Z,101053.91
2023-02-09T13:41:40.754Z,101060.41
2023-02-09T13:46:52.454Z,101067.69
2023-02-09T13:52:21.175Z,101057.13
2023-02-09T13:57:32.097Z,101052.63
2023-02-09T14:02:36.296Z,101045.22
2023-02-09T14:07:39.236Z,101045.59
2023-02-09T14:12:56.075Z,101046.31
2023-02-09T14:17:59.004Z,101045.97
2023-02-09T14:23:02.130Z,101036.34
2023-02-09T14:28:05.399Z,101046.81
2023-02-09T14:33:24.537Z,101038.50
2023-02-09T14:38:39.458Z,101011.38
2023-02-09T14:43:42.094Z,101025.38
2023-02-09T14:48:44.663Z,100994.31
2023-02-09T14:53:47.311Z,101016.94
2023-02-09T14:58:49.918Z,101000.38
2023-02-09T15:03:52.609Z,100993.00
2023-02-09T15:08:55.371Z,100985.13
2023-02-09T15:14:04.147Z,100994.59
2023-02-09T15:19:17.238Z,100986.00
2023-02-09T15:24:20.022Z,101001.09
2023-02-09T15:29:25.820Z,100991.41
2023-02-09T15:34:28.410Z,100990.50
2023-02-09T15:39:31.654Z,100997.81
2023-02-09T15:44:52.645Z,100989.19
2023-02-09T15:49:55.335Z,101009.41
2023-02-09T15:54:58.012Z,100996.41
2023-02-09T16:00:00.678Z,100997.47
2023-02-09T16:05:03.320Z,100988.44
2023-02-09T16:10:13.210Z,100937.75
2023-02-09T16:15:24.206Z,100982.63
2023-02-09T16:20:28.171Z,100999.97
2023-02-09T16:25:30.800Z,100960.00
2023-02-09T16:30:37.712Z,100966.84
2023-02-09T16:35:40.512Z,100986.19
2023-02-09T16:40:43.264Z,100958.25
2023-02-09T16:46:00.873Z,100974.19
2023-02-09T16:51:06.382Z,100969.69
2023-02-09T16:56:13.194Z,100981.72
2023-02-09T17:01:21.587Z,100963.56
2023-02-09T17:06:30.230Z,100961.44
2023-02-09T17:11:33.390Z,100955.53
2023-02-09T17:16:39.947Z,100956.22
2023-02-09T17:21:42.928Z,100942.72
2023-02-09T17:26:48.225Z,100925.03
2023-02-09T17:31:53.483Z,100924.81
2023-02-09T17:37:00.794Z,100901.94
2023-02-09T17:42:03.607Z,100907.22
2023-02-09T17:47:10.110Z,100930.66
2023-02-09T17:52:24.332Z,100913.59
2023-02-09T17:57:27.709Z,100920.59
2023-02-09T18:02:31.011Z,100915.69
2023-02-09T18:07:35.618Z,100894.41
2023-02-09T18:12:39.394Z,100873.59
2023-02-09T18:17:46.198Z,100898.84
2023-02-09T18:22:57.938Z,100879.94
2023-02-09T18:28:01.593Z,100892.59
2023-02-09T18:33:10.648Z,100883.66
2023-02-09T18:38:53.625Z,100890.41
2023-02-09T18:44:00.850Z,100874.34
2023-02-09T18:49:06.115Z,100864.63
2023-02-09T18:54:12.944Z,100882.44
2023-02-09T18:59:17.853Z,100849.03
2023-02-09T19:04:20.512Z,100863.97
2023-02-09T19:09:23.213Z,100847.22
2023-02-09T19:14:38.008Z,100824.06
2023-02-09T19:19:41.513Z,100834.97
2023-02-09T19:24:47.546Z,100815.78
2023-02-09T19:30:30.530Z,100817.13
2023-02-09T19:35:34.044Z,100825.88
2023-02-09T19:41:10.734Z,100820.97
2023-02-09T19:46:36.667Z,100813.69
2023-02-09T19:51:39.444Z,100805.38
2023-02-09T19:57:06.496Z,100795.13
2023-02-09T20:02:12.639Z,100786.66
2023-02-09T20:07:15.465Z,100772.84
2023-02-09T20:12:19.474Z,100769.09
2023-02-09T20:17:22.140Z,100776.66
2023-02-09T20:22:26.593Z,100769.03
2023-02-09T20:27:33.055Z,100775.59
2023-02-09T20:32:36.849Z,100762.53
2023-02-09T20:37:45.392Z,100735.19
2023-02-09T20:43:08.814Z,100745.31
2023-02-09T20:48:24.095Z,100738.16
2023-02-09T20:53:26.775Z,100737.88
2023-02-09T20:58:29.389Z,100735.69
2023-02-09T21:03:32.006Z,100725.38
2023-02-09T21:08:37.198Z,100724.59
2023-02-09T21:13:41.268Z,100729.53
2023-02-09T21:18:45.792Z,100672.38
2023-02-09T21:23:48.550Z,100697.78
2023-02-09T21:28:56.144Z,100718.72
2023-02-09T21:33:58.734Z,100710.56
2023-02-09T21:39:01.244Z,100707.75
2023-02-09T21:44:04.982Z,100703.78
2023-02-09T21:49:07.931Z,100688.81
2023-02-09T21:54:15.730Z,100682.44
2023-02-09T21:59:18.414Z,100680.31
2023-02-09T22:04:21.527Z,100651.44
2023-02-09T22:09:25.191Z,100669.00
2023-02-09T22:14:28.936Z,100664.59
2023-02-09T22:19:31.702Z,100650.09
2023-02-09T22:24:34.967Z,100663.59
2023-02-09T22:29:37.690Z,100619.41
2023-02-09T22:34:40.250Z,100622.78
2023-02-09T22:39:45.009Z,100599.34
2023-02-09T22:44:48.072Z,100616.34
2023-02-09T22:49:50.754Z,100615.53
2023-02-09T22:54:53.301Z,100609.19
2023-02-09T22:59:56.068Z,100610.75
2023-02-09T23:04:58.640Z,100604.81
2023-02-09T23:10:01.266Z,100588.88
2023-02-09T23:15:06.110Z,100576.03
2023-02-09T23:20:09.057Z,100573.41
2023-02-09T23:25:11.589Z,100526.34
2023-02-09T23:30:15.407Z,100559.34
2023-02-09T23:35:18.064Z,100552.91
2023-02-09T23:40:20.633Z,100554.50
2023-02-09T23:45:23.450Z,100542.88
2023-02-09T23:50:26.470Z,100532.56
2023-02-09T23:55:29.167Z,100519.47
